Time;durP1;ratioP1;P1;durP2;ratioP2;P2;SDS_P1;SDS_P2;PMS_P1;PMS_P2;Temp;Humidity;BMP_temperature;BMP_pressure;BME280_temperature;BME280_humidity;BME280_pressure;Samples;Min_cycle;Max_cycle;Signal;HPM_P1;HPM_P2
2022/12/13 00:01:30;;;;;;;28.37;26.10;;;2.30;22.10;;;;;;5053831;28;20599;-75
2022/12/13 00:03:57;;;;;;;29.60;27.10;;;2.20;22.50;;;;;;5053180;28;20434;-75
2022/12/13 00:06:23;;;;;;;28.57;26.17;;;2.20;22.80;;;;;;5053014;28;20421;-74
2022/12/13 00:08:49;;;;;;;28.87;26.37;;;2.20;22.70;;;;;;5053238;28;20414;-75
2022/12/13 00:11:14;;;;;;;28.67;26.47;;;2.10;22.90;;;;;;5053422;28;20497;-75
2022/12/13 00:13:42;;;;;;;29.17;26.87;;;2.20;23.30;;;;;;5053420;28;20758;-75
2022/12/13 00:16:11;;;;;;;30.47;28.10;;;2.30;22.40;;;;;;5053760;28;20171;-75
2022/12/13 00:18:37;;;;;;;28.90;26.67;;;2.20;22.40;;;;;;5057950;28;20491;-74
2022/12/13 00:21:12;;;;;;;28.30;26.00;;;2.10;22.90;;;;;;5061124;28;20478;-75
2022/12/13 00:23:38;;;;;;;27.90;25.77;;;2.10;22.70;;;;;;5068141;28;20192;-75
2022/12/13 00:26:10;;;;;;;29.70;27.20;;;2.20;23.00;;;;;;5074916;28;20469;-76
2022/12/13 00:28:36;;;;;;;28.83;26.63;;;2.30;22.70;;;;;;5073595;28;20168;-75
2022/12/13 00:31:02;;;;;;;29.77;27.13;;;2.20;22.60;;;;;;5073770;28;20442;-75
2022/12/13 00:33:28;;;;;;;29.53;26.90;;;2.20;22.50;;;;;;5073263;28;20477;-75
2022/12/13 00:35:54;;;;;;;29.17;26.80;;;2.20;22.90;;;;;;5075789;28;20493;-75
2022/12/13 00:38:21;;;;;;;27.57;25.27;;;2.20;22.60;;;;;;5075961;28;20434;-76
2022/12/13 00:40:47;;;;;;;26.93;24.83;;;2.10;22.90;;;;;;5076472;28;20418;-76
2022/12/13 00:43:12;;;;;;;30.63;28.13;;;2.00;22.80;;;;;;5074249;28;20453;-76
2022/12/13 00:45:38;;;;;;;29.40;27.10;;;2.00;22.80;;;;;;5075142;28;20180;-75
2022/12/13 00:48:04;;;;;;;30.13;27.70;;;1.80;23.00;;;;;;5074803;28;20218;-76
2022/12/13 00:50:31;;;;;;;29.97;27.53;;;1.90;23.40;;;;;;5066743;28;21070;-74
2022/12/13 00:52:58;;;;;;;30.10;27.70;;;1.90;23.40;;;;;;5052880;28;20465;-74
2022/12/13 00:55:23;;;;;;;30.77;28.30;;;2.10;23.10;;;;;;5052812;28;20423;-74
2022/12/13 00:57:49;;;;;;;28.27;26.20;;;2.00;23.00;;;;;;5051095;28;20422;-75
2022/12/13 01:00:14;;;;;;;30.10;27.50;;;2.00;23.00;;;;;;5052038;28;20231;-76
2022/12/13 01:02:42;;;;;;;28.77;26.47;;;2.20;22.70;;;;;;5051886;28;20176;-75
2022/12/13 01:05:08;;;;;;;27.53;25.30;;;2.20;22.30;;;;;;5052349;28;20258;-74
2022/12/13 01:07:35;;;;;;;29.10;26.70;;;2.10;22.60;;;;;;5050664;28;20493;-76
2022/12/13 01:10:00;;;;;;;29.77;27.37;;;2.30;22.60;;;;;;5052829;28;20421;-75
2022/12/13 01:12:26;;;;;;;29.37;27.17;;;2.20;22.40;;;;;;5050111;28;20415;-76
2022/12/13 01:14:52;;;;;;;28.87;26.47;;;2.30;23.20;;;;;;5049355;28;20217;-76
2022/12/13 01:17:17;;;;;;;30.50;28.10;;;2.40;22.40;;;;;;5050564;28;20203;-76
2022/12/13 01:19:43;;;;;;;29.27;26.90;;;2.30;22.20;;;;;;5050638;28;20218;-75
2022/12/13 01:22:10;;;;;;;29.50;27.10;;;2.20;22.60;;;;;;5049327;28;20238;-76
2022/12/13 01:24:36;;;;;;;30.17;27.80;;;2.30;22.80;;;;;;5049560;28;20212;-75
2022/12/13 01:27:02;;;;;;;30.87;28.37;;;2.30;22.80;;;;;;5049548;28;20556;-76
2022/12/13 01:29:27;;;;;;;30.87;28.23;;;2.20;22.80;;;;;;5049498;28;20720;-75
2022/12/13 01:31:53;;;;;;;30.67;28.07;;;2.10;22.70;;;;;;5049865;28;20858;-76
2022/12/13 01:34:21;;;;;;;31.00;28.30;;;1.70;23.60;;;;;;5050256;28;20353;-75
2022/12/13 01:36:48;;;;;;;31.43;28.73;;;1.60;24.30;;;;;;5050709;28;20172;-75
2022/12/13 01:39:16;;;;;;;31.00;28.40;;;1.60;23.80;;;;;;5050484;28;20402;-75
2022/12/13 01:41:44;;;;;;;31.53;28.53;;;1.30;24.20;;;;;;5048972;28;20975;-75
2022/12/13 01:44:47;;;;;;;32.23;29.50;;;1.10;25.30;;;;;;5050473;28;20423;-74
2022/12/13 01:47:15;;;;;;;30.50;27.83;;;1.20;24.90;;;;;;5049769;28;20786;-75
2022/12/13 01:49:40;;;;;;;30.63;28.13;;;1.20;25.10;;;;;;5049480;28;20793;-76
2022/12/13 01:52:09;;;;;;;30.73;28.23;;;1.40;25.00;;;;;;5049650;28;20445;-75
2022/12/13 01:54:39;;;;;;;29.90;27.70;;;1.50;24.30;;;;;;5050231;28;20509;-75
2022/12/13 01:57:07;;;;;;;30.27;27.77;;;1.60;24.20;;;;;;5049547;28;20483;-75
2022/12/13 01:59:38;;;;;;;29.97;27.77;;;1.60;24.00;;;;;;5050327;28;20402;-76
2022/12/13 02:02:05;;;;;;;31.40;28.97;;;1.60;24.20;;;;;;5050947;28;20544;-76
2022/12/13 02:04:45;;;;;;;30.80;28.50;;;1.60;23.90;;;;;;5050295;28;20430;-75
2022/12/13 02:07:14;;;;;;;30.20;27.80;;;1.40;23.90;;;;;;5050499;28;20413;-75
2022/12/13 02:09:40;;;;;;;30.93;28.53;;;1.00;25.10;;;;;;5050450;28;20413;-74
2022/12/13 02:12:06;;;;;;;32.27;29.77;;;1.00;26.10;;;;;;5050096;28;20419;-75
2022/12/13 02:14:34;;;;;;;30.57;27.93;;;1.20;25.40;;;;;;5050132;28;20520;-73
2022/12/13 02:17:27;;;;;;;32.63;29.87;;;1.30;24.60;;;;;;5049562;28;20415;-75
2022/12/13 02:20:03;;;;;;;29.87;27.43;;;1.20;24.40;;;;;;5049237;28;21070;-75
2022/12/13 02:23:00;;;;;;;31.97;29.27;;;0.90;25.10;;;;;;5048874;28;20496;-75
2022/12/13 02:25:25;;;;;;;30.67;28.27;;;0.80;25.90;;;;;;5049933;28;20390;-74
2022/12/13 02:28:00;;;;;;;31.87;29.40;;;0.70;26.10;;;;;;5048869;28;20412;-74
2022/12/13 02:30:30;;;;;;;32.07;29.57;;;1.00;26.10;;;;;;5049474;28;20201;-75
2022/12/13 02:33:38;;;;;;;31.33;28.77;;;1.40;24.90;;;;;;5048020;28;20971;-76
2022/12/13 02:36:21;;;;;;;30.10;27.70;;;1.80;24.00;;;;;;5050054;28;20758;-76
2022/12/13 02:39:08;;;;;;;31.00;28.47;;;2.00;23.30;;;;;;5048761;28;20414;-74
2022/12/13 02:42:03;;;;;;;29.60;27.27;;;1.60;23.10;;;;;;5048964;28;20426;-75
2022/12/13 02:44:35;;;;;;;29.57;27.20;;;1.60;24.30;;;;;;5048923;28;20489;-75
2022/12/13 02:47:05;;;;;;;30.47;27.97;;;1.90;23.60;;;;;;5048790;28;20471;-74
2022/12/13 02:49:36;;;;;;;29.97;27.57;;;2.00;22.60;;;;;;5049026;28;20423;-75
2022/12/13 02:52:03;;;;;;;30.20;27.60;;;1.70;23.60;;;;;;5050015;28;20842;-75
2022/12/13 02:54:29;;;;;;;28.93;26.53;;;1.70;23.50;;;;;;5048257;28;20466;-75
2022/12/13 02:56:56;;;;;;;31.23;28.77;;;1.60;23.80;;;;;;5047458;28;20943;-74
2022/12/13 02:59:28;;;;;;;28.63;26.43;;;1.70;23.50;;;;;;5049509;28;20411;-75
2022/12/13 03:02:16;;;;;;;30.00;27.50;;;2.00;22.90;;;;;;5048947;28;20507;-75
2022/12/13 03:07:54;;;;;;;31.37;28.87;;;2.40;21.80;;;;;;5049194;28;20719;-76
2022/12/13 03:10:33;;;;;;;29.67;27.40;;;2.60;21.50;;;;;;5046904;28;20423;-76
2022/12/13 03:15:56;;;;;;;28.40;25.97;;;2.70;21.20;;;;;;5048778;28;20588;-75
2022/12/13 03:18:24;;;;;;;29.60;27.20;;;2.80;20.50;;;;;;5048101;28;20421;-75
2022/12/13 03:20:52;;;;;;;27.87;25.67;;;2.80;20.60;;;;;;5048358;28;20410;-75
2022/12/13 03:23:19;;;;;;;30.07;27.50;;;2.90;20.60;;;;;;5050196;28;20438;-75
2022/12/13 03:25:48;;;;;;;28.37;26.00;;;2.90;20.20;;;;;;5050922;28;20780;-74
2022/12/13 03:28:14;;;;;;;30.93;28.63;;;2.60;20.70;;;;;;5050227;28;20888;-74
2022/12/13 03:30:39;;;;;;;29.33;27.07;;;2.30;21.40;;;;;;5052691;28;20486;-75
2022/12/13 03:33:05;;;;;;;29.00;26.80;;;2.30;21.50;;;;;;5052586;28;20220;-75
2022/12/13 03:35:31;;;;;;;29.17;26.77;;;2.30;21.00;;;;;;5053065;28;20258;-75
2022/12/13 03:37:57;;;;;;;28.23;26.13;;;2.10;21.70;;;;;;5052457;28;20168;-75
2022/12/13 03:40:23;;;;;;;30.33;28.00;;;2.20;21.50;;;;;;5052084;28;20809;-75
2022/12/13 03:42:48;;;;;;;30.27;27.93;;;2.30;21.20;;;;;;5052074;28;20199;-75
2022/12/13 03:45:14;;;;;;;29.50;27.10;;;2.50;20.80;;;;;;5052435;28;20173;-76
2022/12/13 03:47:39;;;;;;;28.10;25.83;;;2.60;20.40;;;;;;5051785;28;20179;-75
2022/12/13 03:50:05;;;;;;;30.87;28.33;;;2.70;20.20;;;;;;5053903;28;20176;-76
2022/12/13 03:52:31;;;;;;;30.53;27.90;;;2.80;19.90;;;;;;5051178;28;20263;-77
2022/12/13 03:54:56;;;;;;;29.93;27.67;;;2.80;19.70;;;;;;5051004;28;21288;-76
2022/12/13 03:57:22;;;;;;;30.87;28.30;;;2.70;20.20;;;;;;5051639;28;20186;-75
2022/12/13 03:59:47;;;;;;;29.57;27.17;;;2.20;21.30;;;;;;5051561;28;20255;-75
2022/12/13 04:02:13;;;;;;;30.27;27.80;;;1.90;21.20;;;;;;5052048;28;20176;-75
2022/12/13 04:04:38;;;;;;;30.87;28.60;;;1.80;21.80;;;;;;5050430;28;20212;-74
2022/12/13 04:07:04;;;;;;;29.40;27.10;;;1.50;22.90;;;;;;5049848;28;20219;-75
2022/12/13 04:09:29;;;;;;;29.87;27.37;;;1.70;22.30;;;;;;5051894;28;20361;-75
2022/12/13 04:14:39;;;;;;;29.30;27.10;;;2.30;21.60;;;;;;5051024;28;20207;-75
2022/12/13 04:17:05;;;;;;;30.37;27.97;;;2.60;20.60;;;;;;5051791;28;20406;-74
2022/12/13 04:19:30;;;;;;;29.30;26.93;;;2.70;20.10;;;;;;5050866;28;20183;-75
2022/12/13 04:21:56;;;;;;;29.73;27.40;;;2.80;19.40;;;;;;5050043;28;20219;-75
2022/12/13 04:24:22;;;;;;;30.10;27.90;;;2.90;19.50;;;;;;5051793;28;20204;-75
2022/12/13 04:26:48;;;;;;;28.67;26.13;;;3.00;19.70;;;;;;5051474;28;20178;-75
2022/12/13 04:29:14;;;;;;;27.90;25.60;;;2.80;19.70;;;;;;5051147;28;20797;-75
2022/12/13 04:31:39;;;;;;;29.83;27.47;;;2.40;19.90;;;;;;5051678;28;20179;-75
2022/12/13 04:34:05;;;;;;;29.17;26.67;;;2.40;20.90;;;;;;5051667;28;20454;-74
2022/12/13 04:36:31;;;;;;;28.43;26.13;;;2.60;20.30;;;;;;5050540;28;20179;-74
2022/12/13 04:38:56;;;;;;;29.23;26.63;;;2.70;19.80;;;;;;5051968;28;20564;-74
2022/12/13 04:41:22;;;;;;;29.10;26.87;;;2.90;19.50;;;;;;5050385;28;20176;-75
2022/12/13 04:43:52;;;;;;;27.67;25.43;;;3.00;19.50;;;;;;5051589;28;20544;-75
2022/12/13 04:46:19;;;;;;;29.33;26.93;;;3.00;19.20;;;;;;5050252;28;20172;-75
2022/12/13 04:48:44;;;;;;;29.37;27.07;;;3.10;19.00;;;;;;5051740;28;20415;-74
2022/12/13 04:51:10;;;;;;;29.40;27.20;;;3.10;18.90;;;;;;5050649;28;20453;-75
2022/12/13 04:53:36;;;;;;;28.37;25.90;;;3.10;18.90;;;;;;5050415;28;20207;-76
2022/12/13 04:56:03;;;;;;;28.23;26.03;;;3.20;19.00;;;;;;5051592;28;20312;-75
2022/12/13 04:58:29;;;;;;;26.77;24.63;;;3.20;18.80;;;;;;5047310;28;20231;-74
2022/12/13 05:00:54;;;;;;;28.67;26.50;;;3.20;18.70;;;;;;5045068;28;20426;-74
2022/12/13 05:03:20;;;;;;;28.93;26.73;;;3.30;18.40;;;;;;5030957;28;20208;-75
2022/12/13 05:05:46;;;;;;;29.13;26.73;;;3.30;18.40;;;;;;5029732;28;20195;-76
2022/12/13 05:08:12;;;;;;;29.03;26.63;;;3.20;18.40;;;;;;5044415;28;20798;-75
2022/12/13 05:10:37;;;;;;;30.83;28.17;;;3.20;18.60;;;;;;5051456;28;20507;-75
2022/12/13 05:13:03;;;;;;;29.30;26.97;;;3.20;18.70;;;;;;5051483;28;20459;-75
2022/12/13 05:15:29;;;;;;;28.83;26.43;;;3.10;18.80;;;;;;5051491;28;20179;-75
2022/12/13 05:18:02;;;;;;;28.50;26.30;;;3.10;18.70;;;;;;5051372;28;20406;-75
2022/12/13 05:20:28;;;;;;;29.27;26.97;;;3.10;18.60;;;;;;5051971;28;20172;-75
2022/12/13 05:22:57;;;;;;;28.93;26.70;;;3.10;18.90;;;;;;5049962;28;20790;-75
2022/12/13 05:25:26;;;;;;;26.70;24.70;;;3.10;19.60;;;;;;5032410;28;20534;-74
2022/12/13 05:27:52;;;;;;;27.97;25.90;;;3.00;19.00;;;;;;5043083;28;20475;-74
2022/12/13 05:30:18;;;;;;;28.23;25.93;;;2.90;19.10;;;;;;5047645;28;20438;-73
2022/12/13 05:32:44;;;;;;;26.63;24.50;;;2.90;18.90;;;;;;5052731;28;20445;-75
2022/12/13 05:35:14;;;;;;;28.13;25.80;;;2.90;18.80;;;;;;5051849;28;20415;-75
2022/12/13 05:37:40;;;;;;;26.73;24.63;;;2.80;18.50;;;;;;5052195;28;20722;-75
2022/12/13 05:40:07;;;;;;;28.50;26.27;;;2.70;19.40;;;;;;5052157;28;20442;-75
2022/12/13 05:42:32;;;;;;;27.77;25.30;;;2.70;18.90;;;;;;5051410;28;20172;-76
2022/12/13 05:44:58;;;;;;;26.77;24.67;;;2.70;18.70;;;;;;5051878;28;20413;-75
2022/12/13 05:47:23;;;;;;;28.17;26.03;;;2.80;18.90;;;;;;5050386;28;20188;-74
2022/12/13 05:49:49;;;;;;;28.40;26.20;;;2.80;18.50;;;;;;5051853;28;20172;-75
2022/12/13 05:52:19;;;;;;;26.43;24.37;;;2.80;18.60;;;;;;5051733;28;20179;-75
2022/12/13 05:54:44;;;;;;;28.17;25.87;;;2.80;20.00;;;;;;5050366;28;20218;-75
2022/12/13 05:57:10;;;;;;;27.70;25.50;;;2.80;20.00;;;;;;5052060;28;20811;-75
2022/12/13 05:59:36;;;;;;;27.90;25.30;;;2.80;19.30;;;;;;5048007;28;20173;-76
2022/12/13 06:02:02;;;;;;;27.87;25.70;;;2.80;19.50;;;;;;5042274;28;20481;-76
2022/12/13 06:04:27;;;;;;;26.63;24.50;;;2.80;19.10;;;;;;5049920;28;20732;-77
2022/12/13 06:06:53;;;;;;;27.37;25.13;;;2.70;19.00;;;;;;5052269;28;20630;-76
2022/12/13 06:09:20;;;;;;;27.47;25.37;;;2.70;18.90;;;;;;5052298;28;20212;-75
2022/12/13 06:11:45;;;;;;;26.90;24.70;;;2.60;18.90;;;;;;5052003;28;20180;-76
2022/12/13 06:14:11;;;;;;;29.20;27.13;;;2.70;18.60;;;;;;5050258;28;20868;-76
2022/12/13 06:16:38;;;;;;;28.80;26.70;;;2.60;19.30;;;;;;5051417;28;20187;-76
2022/12/13 06:19:03;;;;;;;27.27;25.20;;;2.60;19.00;;;;;;5050636;28;20172;-75
2022/12/13 06:21:30;;;;;;;31.57;29.07;;;2.60;19.00;;;;;;5046783;28;20423;-74
2022/12/13 06:23:55;;;;;;;29.23;27.07;;;2.60;18.80;;;;;;5052069;28;20200;-76
2022/12/13 06:26:21;;;;;;;26.47;24.53;;;2.70;18.60;;;;;;5051988;28;20445;-75
2022/12/13 06:28:46;;;;;;;28.30;26.20;;;2.70;18.90;;;;;;5052091;28;20177;-75
2022/12/13 06:31:12;;;;;;;27.00;25.00;;;2.60;18.80;;;;;;5050238;28;20553;-75
2022/12/13 06:33:38;;;;;;;27.83;25.73;;;2.60;19.30;;;;;;5052386;28;20635;-75
2022/12/13 06:36:04;;;;;;;26.53;24.60;;;2.70;19.00;;;;;;5052237;28;20202;-76
2022/12/13 06:38:30;;;;;;;27.33;25.23;;;2.70;19.00;;;;;;5049001;28;20171;-76
2022/12/13 06:41:06;;;;;;;29.57;27.37;;;2.80;18.40;;;;;;5050158;28;20465;-75
2022/12/13 06:43:32;;;;;;;26.03;23.83;;;2.70;18.50;;;;;;5050281;28;20438;-76
2022/12/13 06:45:57;;;;;;;24.90;23.03;;;2.70;19.20;;;;;;5050414;28;20948;-75
2022/12/13 06:48:23;;;;;;;27.33;25.23;;;2.80;18.60;;;;;;5040843;28;20267;-74
2022/12/13 06:50:49;;;;;;;28.30;26.17;;;2.90;18.50;;;;;;5051889;28;20175;-75
2022/12/13 06:53:14;;;;;;;25.90;23.97;;;2.70;18.50;;;;;;5043874;28;20322;-75
2022/12/13 06:55:40;;;;;;;25.93;23.77;;;2.80;18.40;;;;;;5043680;28;20529;-74
2022/12/13 06:58:05;;;;;;;26.37;24.37;;;2.80;18.40;;;;;;5044125;28;20175;-74
2022/12/13 07:00:31;;;;;;;25.90;23.90;;;2.80;18.20;;;;;;5044281;28;21042;-75
2022/12/13 07:02:57;;;;;;;26.00;23.87;;;2.80;17.90;;;;;;5047251;28;20265;-75
2022/12/13 07:05:22;;;;;;;25.83;23.80;;;2.90;17.90;;;;;;5034448;28;20183;-76
2022/12/13 07:07:48;;;;;;;25.83;23.77;;;2.90;17.90;;;;;;5049659;28;20217;-75
2022/12/13 07:10:13;;;;;;;27.03;24.77;;;2.90;17.80;;;;;;5051791;28;20176;-76
2022/12/13 07:12:39;;;;;;;28.20;26.10;;;2.90;18.20;;;;;;5050686;28;20301;-76
2022/12/13 07:15:05;;;;;;;25.47;23.53;;;2.80;18.00;;;;;;5051705;28;20674;-76
2022/12/13 07:17:31;;;;;;;24.07;22.33;;;2.70;18.00;;;;;;5043931;28;20179;-76
2022/12/13 07:19:57;;;;;;;25.47;23.57;;;2.70;17.70;;;;;;5041597;28;20409;-76
2022/12/13 07:22:22;;;;;;;26.67;24.60;;;2.70;17.80;;;;;;5039871;28;20230;-76
2022/12/13 07:24:48;;;;;;;25.57;23.70;;;2.70;17.80;;;;;;5035260;28;20196;-75
2022/12/13 07:27:13;;;;;;;26.07;23.97;;;2.70;17.90;;;;;;5032131;28;20180;-76
2022/12/13 07:29:39;;;;;;;26.80;24.67;;;2.60;17.90;;;;;;5046830;28;20192;-77
2022/12/13 07:32:04;;;;;;;27.20;25.07;;;2.60;18.20;;;;;;5052053;28;20194;-75
2022/12/13 07:34:30;;;;;;;26.73;24.30;;;2.60;18.00;;;;;;5050293;28;20224;-75
2022/12/13 07:36:55;;;;;;;26.00;23.90;;;2.50;17.80;;;;;;5051769;28;20178;-74
2022/12/13 07:39:24;;;;;;;27.50;25.17;;;2.40;18.20;;;;;;5047232;28;20188;-75
2022/12/13 07:41:53;;;;;;;27.80;25.50;;;2.50;18.10;;;;;;5039554;28;20264;-75
2022/12/13 07:44:19;;;;;;;25.50;23.40;;;2.60;17.90;;;;;;5033910;28;20961;-76
2022/12/13 07:46:44;;;;;;;28.57;26.03;;;2.50;18.00;;;;;;5042470;28;20422;-77
2022/12/13 07:49:11;;;;;;;26.30;23.93;;;2.50;18.30;;;;;;5051768;28;20179;-77
2022/12/13 07:51:36;;;;;;;26.70;24.70;;;2.50;18.50;;;;;;5051340;28;20188;-76
2022/12/13 07:54:02;;;;;;;26.13;23.97;;;2.50;18.50;;;;;;5045720;28;20573;-76
2022/12/13 07:56:28;;;;;;;26.97;24.43;;;2.50;18.80;;;;;;5049549;28;20180;-76
2022/12/13 07:58:53;;;;;;;26.67;24.47;;;2.50;18.30;;;;;;5049743;28;20242;-75
2022/12/13 08:01:19;;;;;;;26.43;24.53;;;2.60;18.00;;;;;;5048699;28;20187;-75
2022/12/13 08:03:47;;;;;;;26.27;24.30;;;2.60;18.30;;;;;;5047170;28;20284;-75
2022/12/13 08:06:13;;;;;;;26.53;24.23;;;2.60;18.10;;;;;;5049854;28;20601;-77
2022/12/13 08:08:38;;;;;;;26.33;24.00;;;2.70;18.10;;;;;;5048594;28;20428;-75
2022/12/13 08:11:05;;;;;;;27.43;25.10;;;2.50;17.90;;;;;;5050194;28;20263;-75
2022/12/13 08:13:31;;;;;;;26.40;24.37;;;2.50;18.50;;;;;;5042819;28;20686;-76
2022/12/13 08:16:02;;;;;;;26.13;24.07;;;2.50;18.20;;;;;;5034323;28;20469;-76
2022/12/13 08:18:28;;;;;;;26.93;24.73;;;2.70;18.00;;;;;;5035651;28;20443;-76
2022/12/13 08:21:06;;;;;;;24.60;22.80;;;2.80;17.80;;;;;;5035538;28;20411;-76
2022/12/13 08:23:32;;;;;;;25.60;23.50;;;2.80;17.70;;;;;;5034909;28;20472;-75
2022/12/13 08:25:59;;;;;;;25.67;23.87;;;2.90;17.50;;;;;;5035042;28;20411;-76
2022/12/13 08:28:25;;;;;;;27.87;25.23;;;2.80;17.60;;;;;;5035068;28;20420;-77
2022/12/13 08:30:51;;;;;;;25.13;23.17;;;2.70;18.10;;;;;;5034592;28;20527;-74
2022/12/13 08:33:17;;;;;;;25.93;24.03;;;2.80;18.00;;;;;;5034174;28;20220;-76
2022/12/13 08:35:43;;;;;;;25.73;23.80;;;2.80;17.60;;;;;;5035126;28;20432;-75
2022/12/13 08:38:09;;;;;;;25.10;23.20;;;2.80;17.40;;;;;;5035231;28;20412;-76
2022/12/13 08:40:35;;;;;;;24.73;22.83;;;2.90;17.40;;;;;;5033402;28;20430;-75
2022/12/13 08:43:01;;;;;;;26.30;24.37;;;2.80;17.20;;;;;;5034522;28;20453;-75
2022/12/13 08:45:28;;;;;;;26.13;23.90;;;2.80;17.60;;;;;;5034508;28;20411;-76
2022/12/13 08:47:56;;;;;;;25.03;22.83;;;2.80;17.80;;;;;;5037300;28;20248;-75
2022/12/13 08:50:22;;;;;;;25.63;23.60;;;2.80;18.50;;;;;;5043717;28;20407;-75
2022/12/13 08:52:49;;;;;;;24.97;23.03;;;2.80;19.40;;;;;;5046035;28;20432;-76
2022/12/13 08:55:15;;;;;;;26.50;24.50;;;2.90;19.90;;;;;;5054838;28;20659;-76
2022/12/13 08:57:42;;;;;;;27.60;25.20;;;3.00;19.20;;;;;;5056164;28;20411;-76
2022/12/13 09:00:11;;;;;;;28.00;25.80;;;3.00;18.70;;;;;;5053042;28;20275;-76
2022/12/13 09:02:36;;;;;;;36.77;33.63;;;3.10;17.90;;;;;;5065811;28;20510;-74
2022/12/13 09:05:03;;;;;;;32.27;29.10;;;3.10;17.50;;;;;;5073271;28;20410;-74
2022/12/13 09:07:28;;;;;;;29.23;27.03;;;2.80;17.70;;;;;;5073101;28;20175;-75
2022/12/13 09:09:54;;;;;;;29.60;27.20;;;2.70;18.10;;;;;;5062344;28;20422;-75
2022/12/13 09:12:19;;;;;;;27.77;25.57;;;2.80;18.10;;;;;;5057842;28;20235;-75
2022/12/13 09:14:45;;;;;;;29.23;27.03;;;2.80;18.10;;;;;;5056595;28;20203;-75
2022/12/13 09:17:13;;;;;;;26.40;24.43;;;2.60;17.90;;;;;;5055000;28;20183;-75
2022/12/13 09:19:39;;;;;;;28.00;25.30;;;2.60;18.30;;;;;;5054376;28;20430;-76
2022/12/13 09:22:04;;;;;;;29.30;27.10;;;2.70;18.20;;;;;;5055144;28;20564;-75
2022/12/13 09:24:30;;;;;;;26.63;24.53;;;2.80;17.90;;;;;;5055471;28;20211;-76
2022/12/13 09:26:56;;;;;;;38.07;34.63;;;2.80;18.00;;;;;;5055524;28;20626;-76
2022/12/13 09:29:21;;;;;;;28.50;26.30;;;2.90;17.80;;;;;;5053667;28;20195;-75
2022/12/13 09:31:47;;;;;;;25.27;23.03;;;2.90;17.80;;;;;;5053434;28;20258;-76
2022/12/13 09:34:12;;;;;;;27.07;24.97;;;2.90;17.50;;;;;;5052255;28;20212;-76
2022/12/13 09:36:38;;;;;;;24.30;22.50;;;2.90;17.10;;;;;;5052851;28;20703;-77
2022/12/13 09:39:04;;;;;;;26.20;23.67;;;2.50;17.50;;;;;;5053715;28;20569;-75
2022/12/13 09:41:50;;;;;;;27.40;25.10;;;2.00;18.80;;;;;;5053283;28;20542;-75
2022/12/13 09:44:20;;;;;;;26.27;24.10;;;2.10;19.00;;;;;;5053232;28;20200;-76
2022/12/13 09:46:46;;;;;;;27.80;25.50;;;2.30;18.80;;;;;;5054551;28;20418;-76
2022/12/13 09:49:17;;;;;;;26.33;24.20;;;2.30;18.80;;;;;;5052479;28;20422;-75
2022/12/13 09:51:53;;;;;;;26.83;24.73;;;2.40;19.20;;;;;;5043778;28;20431;-75
2022/12/13 09:54:22;;;;;;;26.47;24.37;;;2.40;19.10;;;;;;5031578;28;20466;-75
2022/12/13 09:56:52;;;;;;;25.70;23.80;;;2.60;17.70;;;;;;5038361;28;20427;-76
2022/12/13 09:59:33;;;;;;;24.67;22.77;;;2.60;17.40;;;;;;5043613;28;20419;-75
2022/12/13 10:02:15;;;;;;;26.17;24.17;;;2.50;17.70;;;;;;5036084;28;20451;-75
2022/12/13 10:04:40;;;;;;;25.13;23.00;;;2.60;17.70;;;;;;5032783;28;20423;-74
2022/12/13 10:07:18;;;;;;;27.73;25.60;;;2.70;17.90;;;;;;5033536;28;20473;-75
2022/12/13 10:09:44;;;;;;;26.47;24.67;;;2.90;19.50;;;;;;5032912;28;20561;-75
2022/12/13 10:12:15;;;;;;;27.27;25.17;;;2.90;20.50;;;;;;5033127;28;20782;-75
2022/12/13 10:15:09;;;;;;;26.07;24.07;;;3.00;21.10;;;;;;5032648;28;20562;-75
2022/12/13 10:17:39;;;;;;;26.20;24.00;;;3.00;19.50;;;;;;5032702;28;20430;-74
2022/12/13 10:20:06;;;;;;;26.17;24.00;;;2.70;19.10;;;;;;5070446;28;20416;-74
2022/12/13 10:36:34;;;;;;;25.97;23.47;;;2.80;24.50;;;;;;5141562;27;20959;-50
2022/12/13 10:39:02;;;;;;;24.83;23.00;;;2.70;17.80;;;;;;5122761;27;20808;-45
2022/12/13 10:41:34;;;;;;;26.30;24.30;;;2.60;18.60;;;;;;5111285;28;20408;-47
2022/12/13 10:44:15;;;;;;;24.23;22.40;;;2.40;18.40;;;;;;5116713;28;20793;-46
2022/12/13 10:47:01;;;;;;;24.50;22.40;;;2.40;18.60;;;;;;5124962;28;20458;-49
2022/12/13 10:49:45;;;;;;;25.53;23.63;;;2.20;18.80;;;;;;5113105;28;20472;-49
2022/12/13 10:52:30;;;;;;;24.43;22.37;;;2.20;18.30;;;;;;5121364;28;20548;-45
2022/12/13 10:55:01;;;;;;;25.43;23.43;;;2.00;18.90;;;;;;5136640;27;20468;-46
2022/12/13 10:57:27;;;;;;;24.07;22.27;;;1.80;19.40;;;;;;5113487;28;20456;-53
2022/12/13 10:59:52;;;;;;;24.47;22.57;;;2.00;19.30;;;;;;5121960;28;20408;-50
2022/12/13 11:02:37;;;;;;;24.77;22.77;;;2.30;19.10;;;;;;5117610;28;20770;-48
2022/12/13 11:05:26;;;;;;;26.83;24.67;;;2.40;18.50;;;;;;5119798;28;20775;-50
2022/12/13 11:07:54;;;;;;;24.37;22.63;;;2.30;18.40;;;;;;5117931;28;20467;-48
2022/12/13 11:10:27;;;;;;;23.23;21.30;;;2.20;19.10;;;;;;5111501;28;20507;-49
2022/12/13 11:13:02;;;;;;;23.90;22.00;;;2.20;19.00;;;;;;5120397;28;20411;-47
2022/12/13 11:15:29;;;;;;;23.80;21.53;;;2.00;18.90;;;;;;5107748;28;20483;-52
2022/12/13 11:18:01;;;;;;;23.43;21.40;;;1.90;19.20;;;;;;5118136;28;20634;-48
2022/12/13 11:20:34;;;;;;;24.93;22.97;;;1.80;18.80;;;;;;5121245;28;20431;-53
2022/12/13 11:23:26;;;;;;;22.53;20.80;;;2.00;18.90;;;;;;5117053;28;20407;-48
2022/12/13 11:25:58;;;;;;;23.03;21.07;;;2.20;19.00;;;;;;5111182;28;20438;-58
2022/12/13 11:28:52;;;;;;;23.67;21.43;;;2.20;18.60;;;;;;5114173;28;20524;-58
2022/12/13 11:31:42;;;;;;;23.23;21.40;;;2.20;19.00;;;;;;5115681;28;20924;-58
2022/12/13 11:34:45;;;;;;;22.93;21.23;;;2.10;19.00;;;;;;5119849;28;20486;-58
2022/12/13 11:37:14;;;;;;;23.40;21.60;;;2.00;18.90;;;;;;5106087;28;20423;-58
2022/12/13 11:39:51;;;;;;;22.63;20.73;;;2.20;19.10;;;;;;5103505;28;20412;-58
2022/12/13 11:42:48;;;;;;;21.47;19.87;;;2.60;18.60;;;;;;5097459;28;20412;-60
2022/12/13 11:45:45;;;;;;;23.07;21.20;;;2.90;18.50;;;;;;5084892;28;20412;-59
2022/12/13 11:48:38;;;;;;;22.20;20.60;;;2.60;18.60;;;;;;5106197;28;20431;-60
2022/12/13 11:51:07;;;;;;;25.30;23.17;;;2.90;18.10;;;;;;5100778;28;20412;-58
2022/12/13 11:53:42;;;;;;;23.47;21.63;;;2.90;17.80;;;;;;5102978;28;20876;-59
2022/12/13 11:56:24;;;;;;;22.90;21.00;;;3.00;17.70;;;;;;5100400;28;20928;-59
2022/12/13 11:58:58;;;;;;;24.53;22.17;;;3.10;17.80;;;;;;5103636;28;20504;-60
2022/12/13 12:01:48;;;;;;;24.17;22.00;;;2.90;17.90;;;;;;5096244;28;20417;-60
2022/12/13 12:04:43;;;;;;;24.60;22.70;;;3.10;17.70;;;;;;5100797;28;20824;-59
2022/12/13 12:07:14;;;;;;;23.67;21.87;;;3.40;17.80;;;;;;5100622;28;20567;-60
2022/12/13 12:09:49;;;;;;;24.27;21.90;;;3.50;17.20;;;;;;5103004;28;20413;-60
2022/12/13 12:12:35;;;;;;;27.90;25.13;;;3.60;17.30;;;;;;5099172;28;20411;-59
2022/12/13 12:15:16;;;;;;;23.80;21.40;;;3.50;17.50;;;;;;5105314;28;20465;-59
2022/12/13 12:17:42;;;;;;;24.97;22.93;;;3.40;17.60;;;;;;5099631;28;20828;-60
2022/12/13 12:20:21;;;;;;;23.70;21.77;;;3.60;18.40;;;;;;5103591;28;20420;-59
2022/12/13 12:23:08;;;;;;;23.50;21.60;;;3.70;17.10;;;;;;5099140;28;20504;-59
2022/12/13 12:25:55;;;;;;;22.83;21.23;;;3.80;17.60;;;;;;5099199;28;20423;-59
2022/12/13 12:28:28;;;;;;;23.17;21.07;;;3.80;17.00;;;;;;5095637;28;20413;-59
2022/12/13 12:31:12;;;;;;;23.17;21.37;;;3.80;17.30;;;;;;5107340;28;20896;-59
2022/12/13 12:33:56;;;;;;;25.17;22.60;;;3.90;17.00;;;;;;5097913;28;20481;-59
2022/12/13 12:36:33;;;;;;;24.53;22.30;;;4.00;16.90;;;;;;5107234;28;20475;-60
2022/12/13 12:39:20;;;;;;;23.70;21.80;;;4.00;17.20;;;;;;5108432;28;20495;-59
2022/12/13 12:42:04;;;;;;;23.33;21.50;;;4.00;16.80;;;;;;5096487;28;20404;-60
2022/12/13 12:44:48;;;;;;;27.27;25.17;;;4.00;16.70;;;;;;5102340;28;20447;-60
2022/12/13 12:47:33;;;;;;;26.00;23.73;;;3.80;17.20;;;;;;5104188;28;20817;-60
2022/12/13 12:50:09;;;;;;;25.90;23.70;;;3.90;17.20;;;;;;5101374;28;20436;-59
2022/12/13 12:53:05;;;;;;;22.43;20.43;;;3.90;16.90;;;;;;5096576;28;20810;-60
2022/12/13 12:55:40;;;;;;;25.30;23.00;;;4.00;17.50;;;;;;5103709;28;20456;-59
2022/12/13 12:58:21;;;;;;;25.17;22.50;;;3.70;18.30;;;;;;5102126;28;20408;-59
2022/12/13 13:00:57;;;;;;;23.47;21.57;;;3.60;17.70;;;;;;5106092;28;20409;-59
2022/12/13 13:03:28;;;;;;;24.57;22.70;;;3.50;18.10;;;;;;5099379;28;20414;-60
2022/12/13 13:06:21;;;;;;;24.33;22.33;;;3.60;17.90;;;;;;5095198;28;20633;-59
2022/12/13 13:09:03;;;;;;;26.07;23.97;;;3.70;17.90;;;;;;5106489;27;20809;-59
2022/12/13 13:11:34;;;;;;;25.67;23.87;;;3.80;17.60;;;;;;5100115;28;20424;-53
2022/12/13 13:14:26;;;;;;;24.90;22.70;;;3.90;17.60;;;;;;5101635;28;20899;-59